모두
Taylor Airport (Taylor, AZ) TYL 기상
|
Taylor, AZ (KTYL)
맑은 하늘
가벼운 바람 |
|
17 °C |
There is no TAF data available at TYL or any nearby airports.
최근 TYL METAR 이력
| Date | Time (MST) | Flight Rules | Wind Dir. | Speed | Type | Height AGL (ft) | Visibility | Temp (°C) | Temp (°F) | Dew Point (°C) | Dew Point (°F) | Rel. Humid. | Pressure | Density Altitude | Remarks |
|---|---|---|---|---|---|---|---|---|---|---|---|---|---|---|---|
| 31-8월 | 03:35 | VFR | 300° | 10 kt | 10 miles | 17° | 62° | 13° | 55° | 77% | 30.24 in Hg | 6,931 ft | |||
| 31-8월 | 03:15 | VFR | 300° | 8 kt | 10 miles | 18° | 64° | 13° | 55° | 73% | 30.23 in Hg | 7,061 ft | |||
| 31-8월 | 02:55 | VFR | 260° | 6 kt | 10 miles | 18° | 64° | 15° | 59° | 83% | 30.23 in Hg | 7,061 ft | Wind gusting to 16 KT | ||
| 31-8월 | 02:35 | VFR | 170° | 3 kt | 10 miles | 17° | 62° | 15° | 59° | 88% | 30.21 in Hg | 6,961 ft | |||
| 31-8월 | 02:15 | VFR | Calm | 10 miles | 17° | 62° | 15° | 59° | 88% | 30.21 in Hg | 6,961 ft | ||||
| 31-8월 | 01:55 | VFR | 110° | 4 kt | 10 miles | 17° | 62° | 15° | 59° | 88% | 30.20 in Hg | 6,971 ft | |||
| 31-8월 | 01:35 | VFR | 80° | 3 kt | 10 miles | 17° | 62° | 15° | 59° | 88% | 30.21 in Hg | 6,961 ft | |||
| 31-8월 | 01:15 | VFR | Calm | 10 miles | 18° | 64° | 14° | 57° | 77% | 30.22 in Hg | 7,071 ft | ||||
| 31-8월 | 00:55 | VFR | 210° | 4 kt | 10 miles | 18° | 64° | 14° | 57° | 77% | 30.22 in Hg | 7,071 ft | |||
| 31-8월 | 00:35 | VFR | 210° | 4 kt | 10 miles | 19° | 66° | 14° | 57° | 73% | 30.21 in Hg | 7,201 ft | |||
| 31-8월 | 00:15 | VFR | 190° | 4 kt | 10 miles | 19° | 66° | 14° | 57° | 73% | 30.22 in Hg | 7,191 ft | |||
| 30-8월 | 23:55 | VFR | 180° | 4 kt | 10 miles | 18° | 64° | 15° | 59° | 83% | 30.22 in Hg | 7,071 ft | |||
| 30-8월 | 23:35 | VFR | Calm | 10 miles | 19° | 66° | 15° | 59° | 78% | 30.21 in Hg | 7,201 ft | ||||
| 30-8월 | 23:15 | VFR | Calm | 10 miles | 19° | 66° | 14° | 57° | 73% | 30.22 in Hg | 7,191 ft | ||||
| 30-8월 | 22:55 | VFR | Calm | 10 miles | 19° | 66° | 14° | 57° | 73% | 30.22 in Hg | 7,191 ft | ||||
| 30-8월 | 22:35 | VFR | 180° | 3 kt | 10 miles | 19° | 66° | 14° | 57° | 73% | 30.22 in Hg | 7,191 ft | |||
| 30-8월 | 22:15 | VFR | 40° | 4 kt | 10 miles | 20° | 68° | 14° | 57° | 68% | 30.22 in Hg | 7,311 ft | |||
| 30-8월 | 21:55 | VFR | 100° | 3 kt | 10 miles | 21° | 69° | 12° | 53° | 56% | 30.22 in Hg | 7,431 ft | Thunderstorms | ||
| 30-8월 | 21:35 | VFR | 110° | 4 kt | 10 miles | 21° | 69° | 13° | 55° | 60% | 30.23 in Hg | 7,421 ft | Thunderstorms | ||
| 30-8월 | 21:15 | VFR | 80° | 4 kt | 10 miles | 22° | 71° | 12° | 53° | 53% | 30.24 in Hg | 7,531 ft | |||
| 30-8월 | 20:55 | VFR | 190° | 3 kt | 10 miles | 22° | 71° | 12° | 53° | 53% | 30.23 in Hg | 7,541 ft | |||
| 30-8월 | 20:35 | VFR | 140° | 7 kt | 10 miles | 22° | 71° | 12° | 53° | 53% | 30.21 in Hg | 7,561 ft | |||
| 30-8월 | 20:15 | VFR | 140° | 9 kt | 10 miles | 22° | 71° | 12° | 53° | 53% | 30.20 in Hg | 7,571 ft | |||
| 30-8월 | 19:55 | VFR | 120° | 8 kt | 10 miles | 22° | 71° | 13° | 55° | 57% | 30.20 in Hg | 7,571 ft |
로그인
| 귀하의 브라우저는 지원되지 않습니다.. 브라우저를 업그레이드하세요 |
